Date,TemperatureHighF,TemperatureAvgF,TemperatureLowF,DewpointHighF,DewpointAvgF,DewpointLowF,HumidityHigh,HumidityAvg,HumidityLow,PressureMaxIn,PressureMinIn,WindSpeedMaxMPH,WindSpeedAvgMPH,GustSpeedMaxMPH,PrecipitationSumIn
2013-1-1,40,37,30,32,29,21,83,74,66,30.06,29.93,5,1,0,0.01
2013-1-2,32,27,21,21,17,15,82,66,53,30.27,30.04,14,2,0,0.01
2013-1-3,33,25,16,22,17,13,88,72,53,30.28,30.17,8,1,0,0.00
2013-1-4,38,33,28,24,22,21,79,65,55,30.20,30.08,9,2,0,0.00
2013-1-5,39,31,25,24,22,20,86,69,55,30.41,30.13,8,2,0,0.00
2013-1-6,47,36,27,34,28,25,94,75,49,30.27,30.05,8,1,0,0.02
2013-1-7,43,36,22,31,27,19,89,72,58,30.46,30.16,8,2,0,0.02
2013-1-8,46,30,19,33,25,17,95,82,61,30.46,30.41,6,1,0,0.00
2013-1-9,48,35,21,39,31,20,95,84,71,30.45,30.24,5,1,0,0.00
2013-1-10,48,40,33,34,29,27,85,65,50,30.59,30.37,7,1,0,0.00
2013-1-11,45,38,30,41,34,26,95,87,75,30.55,30.13,6,0,0,0.45
2013-1-12,56,44,39,49,42,38,96,92,78,30.21,30.13,3,0,0,0.45
2013-1-13,45,43,39,44,42,38,97,96,94,30.19,30.02,4,1,0,0.01
2013-1-14,52,48,39,52,44,35,98,87,63,30.34,29.98,7,1,0,0.09
2013-1-15,39,37,33,37,32,29,94,85,73,30.38,30.23,4,1,0,0.10
2013-1-16,37,34,32,36,33,31,96,95,92,30.22,29.88,6,1,0,0.62
2013-1-17,40,38,35,37,31,29,96,76,66,30.15,29.98,8,2,0,0.62
2013-1-18,36,29,20,29,18,10,85,65,42,30.53,30.05,8,2,0,0.01
2013-1-19,48,35,23,31,25,17,86,68,48,30.45,29.97,10,3,0,0.01
2013-1-20,54,41,29,33,24,13,75,52,29,30.11,29.81,14,4,0,0.00
2013-1-21,33,27,21,23,14,10,82,60,48,30.14,29.90,8,2,0,0.00
2013-1-22,23,16,12,16,-1,-4,80,48,38,30.32,29.94,16,4,0,0.00
2013-1-23,19,12,7,3,0,-4,83,60,45,30.36,30.23,7,2,0,0.00
2013-1-24,24,17,8,9,4,0,84,59,37,30.52,30.18,11,2,0,0.00
2013-1-25,21,16,8,15,6,1,92,66,46,30.53,30.13,7,1,0,0.00
2013-1-26,26,18,8,14,11,5,90,75,54,30.47,30.13,8,2,0,0.02
2013-1-27,33,20,5,17,12,2,90,74,48,30.63,30.48,7,1,0,0.02
2013-1-28,36,30,18,35,27,15,96,91,86,30.56,30.09,5,1,0,0.14
2013-1-29,58,44,34,50,41,33,96,91,74,30.18,30.06,5,0,0,0.01
2013-1-30,66,50,35,60,48,33,100,93,80,30.05,29.32,18,2,0,0.52
2013-1-31,61,41,27,60,29,12,97,64,40,29.89,29.11,13,5,0,0.36
2013-2-1,28,25,19,19,10,5,73,54,40,30.35,29.87,13,4,0,0.36
2013-2-2,26,21,14,21,12,5,90,68,48,30.38,30.08,10,2,0,0.00
2013-2-3,32,26,21,25,21,14,91,83,63,30.08,29.86,15,1,0,0.08
2013-2-4,31,24,19,20,14,10,82,64,50,30.11,29.96,8,2,0,0.01
2013-2-5,33,30,26,29,26,22,92,86,80,30.00,29.92,3,0,0,0.02
2013-2-6,39,31,24,30,25,19,95,79,54,30.40,29.97,7,1,0,0.04
2013-2-7,35,28,18,22,18,14,91,68,43,30.52,30.31,5,1,0,0.01
2013-2-8,36,33,30,34,30,22,94,89,70,30.30,29.75,9,2,0,0.13
2013-2-9,32,27,23,27,17,13,88,66,55,30.43,29.88,13,6,0,0.14
2013-2-10,42,29,12,27,15,8,90,61,28,30.54,30.34,6,1,0,0.18
2013-2-11,48,40,32,47,38,27,100,92,78,30.33,29.71,9,2,0,0.27
2013-2-12,45,39,26,37,28,23,87,64,49,30.02,29.82,10,2,0,0.27
2013-2-13,44,32,21,31,26,19,94,80,56,30.02,29.72,4,1,0,0.02
2013-2-14,45,34,26,33,29,23,94,83,49,30.06,29.78,4,1,0,0.14
2013-2-15,56,40,26,37,31,23,95,73,45,30.06,29.96,6,1,0,0.14
2013-2-16,35,32,28,32,27,16,94,82,60,30.03,29.84,9,2,0,0.05
2013-2-17,30,25,20,19,10,3,82,53,42,30.17,29.82,14,5,0,0.05
2013-2-18,36,26,18,19,11,5,76,55,37,30.39,30.18,9,3,0,0.00
2013-2-19,41,34,22,39,29,18,94,84,59,30.23,29.75,13,2,0,0.26
2013-2-20,34,28,23,25,14,10,68,58,48,30.13,29.84,17,4,0,0.26
2013-2-21,34,27,22,18,14,11,66,59,48,30.36,30.11,11,4,0,0.00
2013-2-22,35,29,23,29,21,15,86,71,61,30.43,30.29,8,1,0,0.00
2013-2-23,42,38,33,42,36,29,96,94,86,30.30,29.85,4,1,0,0.09
2013-2-24,45,37,30,38,30,20,96,76,55,30.11,29.82,10,3,0,0.09
2013-2-25,46,34,25,28,24,20,88,67,48,30.28,30.10,6,2,0,0.00
2013-2-26,43,34,22,35,29,20,94,84,64,30.29,29.78,8,2,0,0.40
2013-2-27,49,43,37,44,38,34,96,85,65,29.77,29.56,13,2,0,0.07
2013-2-28,45,39,34,37,32,26,93,77,50,29.72,29.63,10,2,0,0.07
2013-3-1,42,37,33,31,29,24,85,71,58,29.88,29.71,9,2,0,0.00
2013-3-2,38,33,30,25,23,21,76,66,54,29.87,29.79,8,3,0,0.00
2013-3-3,36,31,27,23,20,16,73,64,51,29.88,29.80,10,4,0,0.00
2013-3-4,38,32,27,22,19,16,67,61,52,30.04,29.88,9,4,0,0.00
2013-3-5,47,36,29,28,24,21,80,65,47,30.09,29.95,8,2,0,0.00
2013-3-6,39,37,33,36,32,27,91,83,68,30.00,29.78,17,5,0,0.24
2013-3-7,44,39,33,28,25,20,72,59,49,30.14,29.99,11,5,0,0.24
2013-3-8,43,37,29,29,25,19,90,64,51,30.29,30.12,17,6,0,0.02
2013-3-9,62,43,29,29,23,20,80,50,21,30.36,30.27,8,2,0,0.02
2013-3-10,58,40,23,35,26,20,91,63,29,30.39,30.29,8,2,0,0.00
2013-3-11,56,47,38,48,42,35,96,84,64,30.33,30.07,7,2,0,0.00
2013-3-12,56,50,41,55,46,32,96,88,68,30.04,29.73,14,4,0,1.20
2013-3-13,46,39,29,35,28,18,91,66,45,30.03,29.89,10,3,0,1.20
2013-3-14,41,34,29,21,17,14,69,50,35,30.07,29.99,18,5,0,0.00
2013-3-15,52,38,22,33,22,13,80,55,40,30.09,29.79,14,3,0,0.00
2013-3-16,43,36,32,33,30,26,94,80,61,29.98,29.77,5,1,0,0.11
2013-3-17,39,32,28,31,26,20,94,77,52,30.34,29.96,7,1,0,0.05
2013-3-18,37,32,26,32,24,15,94,76,49,30.40,29.94,7,1,0,0.09
2013-3-19,51,38,33,39,32,19,96,81,35,29.94,29.74,8,2,0,0.31
2013-3-20,48,39,28,26,20,16,70,48,28,29.98,29.82,10,2,0,0.08
2013-3-21,37,32,27,28,17,9,89,58,38,29.86,29.73,10,3,0,0.08
2013-3-22,41,32,25,27,20,13,77,61,44,30.01,29.85,11,3,0,0.00
2013-3-23,47,37,30,24,22,20,69,55,39,30.02,29.94,8,3,0,0.00
2013-3-24,45,34,21,28,22,18,91,63,38,30.03,29.72,9,1,0,0.00
2013-3-25,36,34,32,33,30,26,93,85,68,29.74,29.53,5,1,0,0.37
2013-3-26,51,39,33,34,32,26,94,76,40,29.97,29.70,9,2,0,0.04
2013-3-27,49,42,34,32,29,26,88,62,43,30.09,29.96,16,4,0,0.04
2013-3-28,46,41,36,32,28,27,76,62,50,30.21,30.05,11,3,0,0.00
2013-3-29,51,44,36,31,29,25,74,56,43,30.24,30.14,7,2,0,0.00
2013-3-30,57,41,25,35,26,23,94,61,29,30.25,30.14,7,1,0,0.00
2013-3-31,53,41,27,46,35,24,94,81,49,30.18,29.77,14,2,0,0.06
2013-4-1,62,46,33,47,34,13,96,66,33,29.99,29.73,12,3,0,0.06
2013-4-2,44,37,29,17,15,12,59,41,29,30.18,29.99,12,3,0,0.00
2013-4-3,46,35,23,19,15,11,79,47,27,30.38,30.18,12,3,0,0.00
2013-4-4,52,36,22,25,19,15,83,53,27,30.46,30.13,8,2,0,0.00
2013-4-5,62,48,37,35,27,17,89,51,22,30.12,29.82,11,3,0,0.00
2013-4-6,54,43,33,30,19,14,69,42,23,30.36,30.06,8,2,0,0.00
2013-4-7,63,52,37,44,36,27,74,58,42,30.33,30.03,14,4,0,0.00
2013-4-8,79,62,43,51,46,39,88,60,34,30.10,29.98,9,1,0,0.00
2013-4-9,84,68,50,55,52,46,89,59,33,30.06,29.93,9,2,0,0.00
2013-4-10,89,73,55,60,56,50,91,59,35,29.96,29.77,15,2,0,0.18
2013-4-11,75,62,50,64,56,45,97,83,65,29.94,29.82,8,1,0,0.01
2013-4-12,50,46,43,46,44,42,96,93,84,29.93,29.70,7,2,0,0.58
2013-4-13,62,50,38,43,39,34,96,70,40,30.01,29.80,10,1,0,0.01
2013-4-14,61,49,33,41,34,28,95,62,34,30.19,30.01,7,2,0,0.01
2013-4-15,62,52,44,46,41,32,84,67,52,30.36,30.18,8,2,0,0.00
2013-4-16,71,58,44,57,51,41,92,76,61,30.36,30.14,17,3,0,0.00
2013-4-17,72,61,52,56,50,41,94,71,33,30.30,30.12,8,1,0,0.00
2013-4-18,62,57,53,59,50,40,94,80,57,30.30,30.07,4,1,0,0.04
2013-4-19,75,64,53,66,60,51,95,87,69,30.07,29.62,24,4,0,0.38
2013-4-20,57,49,41,50,34,26,92,60,35,30.37,29.78,17,3,0,0.31
2013-4-21,54,44,34,34,26,21,78,51,32,30.64,30.37,8,2,0,0.02
2013-4-22,56,44,30,37,32,28,94,67,43,30.64,30.47,8,2,0,0.05
2013-4-23,55,48,42,44,39,34,82,73,60,30.47,30.17,6,2,0,0.05
2013-4-24,74,54,34,57,47,32,95,79,54,30.16,29.82,10,2,0,0.00
2013-4-25,62,51,38,51,33,28,82,54,30,30.32,29.95,11,3,0,0.00
2013-4-26,64,49,34,39,32,26,94,59,24,30.47,30.32,8,1,0,0.00
2013-4-27,70,52,31,42,34,29,95,59,28,30.48,30.32,5,1,0,0.00
2013-4-28,70,54,37,46,38,32,94,59,31,30.34,30.21,11,2,0,0.00
2013-4-29,56,54,50,54,51,39,95,90,58,30.23,30.13,7,1,0,0.51
2013-4-30,71,59,47,53,47,37,96,69,39,30.34,30.17,9,2,0,0.01
2013-5-1,71,54,36,43,37,31,93,58,24,30.49,30.34,8,1,0,0.01
2013-5-2,73,55,37,47,41,35,96,65,32,30.48,30.35,8,1,0,0.00
2013-5-3,68,54,41,45,40,35,94,64,33,30.44,30.36,8,1,0,0.00
2013-5-4,72,54,35,48,40,33,95,64,32,30.39,30.23,8,1,0,0.00
2013-5-5,67,52,39,43,40,36,92,65,38,30.30,30.20,8,1,0,0.00
2013-5-6,68,54,38,55,48,36,94,81,62,30.26,30.14,8,1,0,0.00
2013-5-7,72,60,52,62,56,49,95,87,65,30.16,30.05,5,1,0,0.15
2013-5-8,75,63,56,63,57,53,96,84,48,30.06,29.94,8,1,0,0.29
2013-5-9,71,61,54,59,55,52,96,83,62,30.00,29.94,5,1,0,0.04
2013-5-10,83,66,49,63,55,47,97,72,38,30.04,29.91,9,1,0,0.38
2013-5-11,75,65,61,67,62,59,97,90,70,29.94,29.73,7,1,0,0.16
2013-5-12,62,57,46,58,41,28,93,58,32,30.02,29.74,14,2,0,0.02
2013-5-13,56,46,35,38,31,25,93,60,35,30.18,30.02,6,1,0,0.01
2013-5-14,60,46,29,42,31,27,95,61,30,30.23,30.08,6,1,0,0.28
2013-5-15,70,58,47,60,51,42,93,80,58,30.12,29.74,6,1,0,0.03
2013-5-16,83,67,55,67,59,53,96,78,45,29.91,29.75,6,0,0,0.04
2013-5-17,78,63,48,55,48,43,92,62,32,30.21,29.91,6,1,0,0.04
2013-5-18,70,61,55,56,52,47,94,74,50,30.29,30.21,7,1,0,0.04
2013-5-19,64,60,57,62,59,56,96,95,91,30.28,30.16,5,0,0,0.05
2013-5-20,80,68,61,70,64,60,97,87,69,30.18,30.01,5,0,0,0.01
2013-5-21,83,72,60,71,66,58,96,84,65,30.01,29.89,6,1,0,0.01
2013-5-22,90,76,64,73,68,62,96,80,51,29.94,29.84,13,2,0,0.00
2013-5-23,80,71,64,70,66,62,95,86,67,29.91,29.78,10,2,0,0.32
2013-5-24,64,54,45,62,50,38,96,84,67,30.10,29.74,12,2,0,0.05
2013-5-25,62,53,44,40,36,34,80,56,36,30.13,30.05,13,3,0,0.05
2013-5-26,70,56,44,43,38,35,86,53,30,30.25,30.11,11,1,0,0.00
2013-5-27,74,57,36,50,41,34,96,62,29,30.31,30.20,7,0,0,0.00
2013-5-28,65,58,51,63,56,48,95,93,87,30.24,30.13,3,0,0,0.21
2013-5-29,92,82,69,71,64,-100,86,58,42,30.13,30.06,7,-16,0,0.00
2013-5-30,95,78,60,72,65,58,97,69,37,30.18,30.11,4,0,0,0.00
2013-5-31,93,78,63,71,65,60,96,69,34,30.16,30.04,8,1,0,0.00
2013-6-1,92,77,61,72,67,59,96,73,48,30.05,29.93,7,1,0,0.00
2013-6-2,86,77,66,73,68,64,93,75,60,29.93,29.82,11,2,0,0.00
2013-6-3,84,72,61,69,65,58,95,81,55,29.92,29.83,5,0,0,0.07
2013-6-4,76,63,50,58,49,44,91,64,36,30.15,29.93,8,1,0,0.07
2013-6-5,74,54,45,53,46,43,96,78,35,30.23,30.14,4,0,0,0.00
2013-6-7,67,64,61,66,63,60,97,97,96,29.78,29.62,5,2,0,0.65
2013-6-8,78,67,60,65,62,57,97,85,62,30.12,29.66,5,1,0,0.07
2013-6-9,84,69,54,67,60,52,97,76,45,30.23,30.12,5,0,0,0.03
2013-6-10,73,69,65,71,68,62,96,94,87,30.17,29.79,7,1,0,0.02
2013-6-11,81,73,64,69,65,60,97,78,60,29.82,29.73,8,1,0,0.03
2013-6-12,84,73,63,67,63,59,89,71,49,29.87,29.82,4,1,0,0.02
2013-6-13,85,70,60,72,65,57,95,83,58,29.86,29.42,15,1,0,0.01
2013-6-14,77,64,55,58,55,52,94,75,50,29.97,29.57,13,2,0,0.01
2013-6-15,82,67,51,63,56,50,97,71,42,30.08,29.97,4,0,0,0.01
2013-6-16,82,74,56,68,64,54,93,73,50,30.04,29.87,6,1,0,0.01
2013-6-17,89,73,61,71,66,60,96,80,52,29.97,29.89,7,0,0,0.01
2013-6-18,81,67,62,72,64,60,96,92,73,29.95,29.82,4,0,0,0.01
2013-6-19,81,67,57,63,57,51,96,74,40,30.19,29.91,5,0,0,0.01
2013-6-20,82,68,52,62,57,50,96,72,42,30.30,30.20,6,1,0,0.01
2013-6-21,85,68,52,60,56,50,96,68,39,30.34,30.27,8,1,0,0.02
2013-6-22,88,70,52,69,62,50,96,76,50,30.29,30.14,4,1,0,0.01
2013-6-23,86,74,60,76,68,59,96,83,60,30.22,30.08,6,1,0,0.01
2013-6-24,94,76,67,76,70,65,97,82,54,30.12,30.02,17,1,0,0.01
2013-6-25,93,76,62,75,69,61,97,82,49,30.05,29.88,7,1,0,0.01
2013-6-26,92,77,66,74,69,64,94,77,50,29.91,29.80,4,0,0,0.01
2013-6-27,89,75,66,75,70,65,97,85,58,29.84,29.59,5,1,0,0.02
2013-6-28,87,74,68,72,69,66,97,85,55,29.61,29.51,7,1,0,0.02
2013-6-29,89,76,65,71,67,63,97,76,44,29.73,29.51,7,1,0,0.02
2013-6-30,83,75,66,75,70,64,96,86,66,29.90,29.72,7,1,0,0.03
2013-7-1,79,75,71,74,72,69,96,92,83,30.02,29.88,9,1,0,0.03
2013-7-2,85,76,73,75,72,71,96,88,70,30.20,30.02,9,2,0,0.04
2013-7-3,86,77,71,77,73,69,96,88,70,30.26,30.19,4,1,0,0.04
2013-7-4,89,79,71,76,73,69,96,83,65,30.28,30.19,11,1,0,0.07
2013-7-5,91,80,70,77,73,68,96,80,58,30.24,30.13,7,1,0,0.09
2013-7-6,96,81,70,77,73,68,97,79,50,30.20,30.07,6,0,0,0.10
2013-7-7,94,79,69,79,72,67,96,81,57,30.12,29.99,4,0,0,0.10
2013-7-8,88,74,67,73,69,66,97,84,53,30.10,30.04,2,0,0,0.08
2013-7-9,88,77,68,76,71,66,96,82,64,30.11,30.02,4,0,0,0.07
2013-7-10,87,78,70,77,73,68,96,85,68,30.03,29.85,6,1,0,0.06
2013-7-11,87,77,69,74,70,66,94,81,58,29.94,29.84,2,0,0,0.05
2013-7-12,73,69,66,70,66,63,96,90,79,30.06,29.93,6,1,0,0.04
2013-7-13,89,76,68,76,72,67,97,88,65,30.32,30.05,6,1,0,0.04
2013-7-14,93,80,72,77,73,70,97,80,53,30.37,30.28,5,0,0,0.03
2013-7-15,97,81,68,78,72,67,97,77,48,30.30,30.19,4,0,0,0.02
2013-7-16,95,85,73,75,69,-100,92,64,47,30.24,30.17,5,-17,0,0.02
2013-7-17,97,77,67,75,71,66,96,82,47,30.23,30.11,2,0,0,0.02
2013-7-18,100,86,71,80,76,70,96,75,49,30.12,30.00,2,0,0,0.02
2013-7-19,98,85,75,81,77,70,96,78,56,30.02,29.85,7,1,0,0.02
2013-7-20,92,81,72,77,72,68,92,77,58,29.89,29.79,11,1,0,0.01
2013-7-21,90,79,70,75,72,68,95,79,56,29.96,29.88,3,0,0,0.01
2013-7-22,90,78,70,76,72,69,96,83,60,29.96,29.78,3,0,0,0.02
2013-7-23,88,77,69,74,71,67,96,83,62,29.79,29.63,5,0,0,0.02
2013-7-24,79,72,64,69,65,53,96,80,60,29.97,29.68,6,1,0,0.01
2013-7-25,75,64,55,63,56,51,89,78,63,30.07,29.96,5,1,0,0.01
2013-7-26,86,71,60,64,60,58,94,72,43,30.10,30.04,4,0,0,0.01
2013-7-27,84,70,56,71,64,55,97,81,60,30.09,29.95,6,1,0,0.01
2013-7-28,85,73,66,74,68,64,95,86,63,30.00,29.91,6,0,0,0.01
2013-7-29,84,72,60,68,60,54,95,71,39,30.16,29.98,4,0,0,0.01
2013-7-30,83,68,56,63,58,54,96,74,45,30.23,30.16,5,0,0,0.01
2013-7-31,84,70,55,68,62,53,96,79,53,30.19,30.05,4,0,0,0.01
2013-8-1,79,70,66,73,67,64,96,91,75,30.05,29.84,4,0,0,0.01
2013-8-2,86,74,64,70,65,61,97,77,48,29.97,29.85,6,1,0,0.01
2013-8-3,78,68,62,68,64,60,96,87,69,29.97,29.92,6,0,0,0.01
2013-8-4,79,68,58,63,59,55,95,74,47,30.04,29.91,5,1,0,0.01
2013-8-5,80,65,52,60,54,51,96,74,40,30.13,30.04,4,0,0,0.00
2013-8-6,74,64,53,65,60,52,96,86,70,30.14,30.07,6,1,0,0.01
2013-8-7,74,69,64,71,67,63,96,93,86,30.13,30.06,4,1,0,0.01
2013-8-8,87,76,68,76,71,67,97,86,64,30.08,30.00,6,1,0,0.01
2013-8-9,85,78,72,77,74,71,97,88,73,30.01,29.85,7,1,0,0.01
2013-8-10,86,75,66,72,67,63,95,78,50,30.09,29.92,3,0,0,0.01
2013-8-11,87,72,59,69,63,58,96,77,49,30.16,30.04,4,0,0,0.01
2013-8-12,88,75,68,71,68,66,96,80,49,30.06,29.96,4,0,0,0.00
2013-8-13,84,74,66,72,69,63,97,84,62,29.83,29.75,3,0,0,0.02
2013-8-14,73,64,54,62,53,49,91,68,51,30.10,29.82,11,2,0,0.02
2013-8-15,80,62,47,58,52,45,97,73,38,30.21,30.11,4,0,0,0.01
2013-8-16,82,65,49,64,55,47,97,74,40,30.24,30.17,4,0,0,0.01
2013-8-17,84,67,51,65,57,50,97,76,41,30.30,30.24,4,0,0,0.01
2013-8-18,73,66,61,64,61,59,96,85,64,30.28,30.18,4,0,0,0.01
2013-8-19,76,67,58,68,62,56,96,85,68,30.20,30.09,4,0,0,0.01
2013-8-20,88,72,58,71,64,57,97,79,49,30.19,30.11,3,0,0,0.01
2013-8-21,90,73,58,74,66,56,97,81,48,30.22,30.09,4,0,0,0.01
2013-8-22,85,75,68,75,71,67,96,87,65,30.11,29.93,4,0,0,0.01
2013-8-23,74,68,59,68,64,57,96,87,73,30.13,29.95,6,0,0,0.01
2013-8-24,81,66,55,61,57,54,96,76,43,30.39,30.14,7,1,0,0.00
2013-8-25,83,65,49,65,56,47,97,76,42,30.45,30.29,4,0,0,0.01
2013-8-26,88,70,56,69,63,55,96,79,50,30.30,29.98,6,0,0,0.00
2013-8-27,90,75,67,72,68,65,95,80,52,29.98,29.89,6,1,0,0.01
2013-8-28,77,70,67,74,69,65,97,95,89,29.93,29.85,2,0,0,0.00
2013-8-29,84,73,68,73,69,67,97,89,65,30.05,29.90,4,0,0,0.01
2013-8-30,84,73,66,74,69,65,97,87,68,30.05,29.90,6,0,0,0.01
2013-8-31,89,77,68,77,72,67,97,85,65,29.91,29.81,7,1,0,0.00
2013-9-1,90,78,71,76,73,70,96,84,60,29.86,29.78,6,0,0,0.01
2013-9-2,86,76,66,76,72,64,97,86,67,29.80,29.73,5,0,0,0.01
2013-9-3,81,71,60,69,62,56,97,77,49,29.96,29.75,5,1,0,0.01
2013-9-4,82,67,56,62,58,54,95,75,42,30.08,29.95,6,1,0,0.00
2013-9-5,79,65,53,64,56,50,97,76,40,30.18,30.01,4,0,0,0.01
2013-9-6,74,58,47,51,46,39,94,69,30,30.29,30.18,4,0,0,0.01
2013-9-7,81,61,42,60,51,41,97,75,37,30.18,29.96,4,0,0,0.00
2013-9-8,81,68,55,67,61,49,96,78,56,30.11,29.90,6,1,0,0.00
2013-9-9,76,62,45,64,55,44,95,80,59,30.25,30.11,6,1,0,0.01
2013-9-10,89,76,67,77,70,64,95,84,65,30.20,30.09,8,1,0,0.01
2013-9-11,93,79,69,79,73,68,97,82,57,30.16,30.02,6,0,0,0.00
2013-9-12,87,74,68,77,70,66,96,89,68,30.01,29.75,4,0,0,0.00
2013-9-13,75,66,56,67,59,51,96,80,51,29.93,29.69,8,1,0,0.01
2013-9-14,63,54,44,50,47,42,92,78,58,30.20,29.94,8,1,0,0.01
2013-9-15,75,55,39,56,48,38,97,80,48,30.28,30.13,3,0,0,0.00
2013-9-16,70,59,53,59,54,49,96,86,61,30.28,30.08,5,1,0,0.00
2013-9-17,67,53,42,49,43,39,93,73,43,30.47,30.29,7,1,0,0.01
2013-9-18,72,52,37,53,43,35,97,75,38,30.40,30.24,5,0,0,0.00
2013-9-19,78,57,40,60,49,39,97,78,43,30.25,30.11,6,0,0,0.00
2013-9-20,80,62,46,64,54,44,97,80,50,30.13,30.01,4,0,0,0.00
2013-9-21,77,62,48,65,58,46,97,86,61,30.03,29.72,8,1,0,0.00
2013-9-22,67,60,47,60,52,45,96,79,54,29.97,29.72,9,1,0,0.00
2013-9-23,66,53,42,49,45,40,94,76,51,30.11,29.98,10,1,0,0.01
2013-9-24,72,52,37,54,45,36,96,79,48,30.13,29.97,5,0,0,0.01
2013-9-25,76,54,40,52,46,38,97,76,36,30.02,29.92,3,0,0,0.00
2013-9-26,75,58,44,59,51,42,96,81,47,30.12,29.98,5,0,0,0.00
2013-9-27,73,60,51,57,54,49,96,81,52,30.29,30.12,3,0,0,0.00
2013-9-28,73,58,48,58,52,46,96,80,47,30.35,30.27,7,0,0,0.01
2013-9-29,73,56,43,60,50,41,97,81,52,30.27,30.11,3,0,0,0.01
2013-9-30,75,56,42,57,50,41,97,81,47,30.13,30.02,5,0,0,0.00
2013-10-1,80,61,46,64,54,45,97,81,49,30.08,29.98,4,0,0,0.00
2013-10-2,83,65,50,66,58,49,97,80,51,30.08,29.99,9,1,0,0.00
2013-10-3,84,67,53,67,60,52,97,81,50,30.16,30.07,5,0,0,0.00
2013-10-4,86,69,56,69,62,55,97,81,52,30.11,30.02,4,0,0,0.00
2013-10-5,88,72,61,70,65,59,97,80,48,30.11,30.02,2,0,0,0.00
2013-10-6,85,71,65,71,67,64,95,86,63,30.07,29.97,7,1,0,0.00
2013-10-7,74,65,55,70,62,47,94,90,71,30.05,29.78,9,2,0,0.00
2013-10-8,65,53,43,50,46,42,96,78,49,30.35,30.06,7,1,0,0.00
2013-10-9,59,53,46,50,47,44,95,82,68,30.40,30.28,5,1,0,0.01
2013-10-10,56,54,51,55,51,48,96,91,77,30.28,30.04,10,3,0,0.01
2013-10-11,61,58,56,60,58,55,97,97,96,30.09,29.98,7,2,0,0.01
2013-10-12,70,63,58,59,54,47,97,74,51,30.24,30.05,6,2,0,0.01
2013-10-13,69,59,48,56,52,46,92,77,56,30.39,30.24,6,2,0,0.00
2013-10-14,70,54,44,54,48,43,96,83,53,30.39,30.27,4,0,0,0.01
2013-10-15,73,54,42,56,47,40,97,80,44,30.29,30.14,5,0,0,0.01
2013-10-16,68,57,47,59,54,45,96,88,71,30.14,29.96,4,0,0,0.00
2013-10-17,73,63,55,63,60,54,96,90,70,29.96,29.74,7,1,0,0.01
2013-10-18,63,55,41,58,45,38,92,72,50,30.05,29.79,10,2,0,0.01
2013-10-19,63,49,37,53,45,35,96,85,61,30.05,29.81,9,1,0,0.00
2013-10-20,61,50,37,48,40,35,93,70,44,30.13,29.85,6,1,0,0.00
2013-10-21,67,48,33,48,39,31,96,74,36,30.20,30.01,9,1,0,0.00
2013-10-22,60,44,39,53,30,-100,97,75,59,30.01,29.83,3,-93,0,0.00
2013-10-23,55,40,38,38,20,-100,91,62,48,29.87,29.68,8,-113,0,0.02
2013-10-24,49,41,33,36,31,28,91,70,47,30.12,29.86,10,1,0,0.02
2013-10-25,52,42,33,36,32,29,85,70,52,30.31,30.12,11,2,0,0.00
2013-10-26,54,43,29,36,31,27,93,66,42,30.31,29.96,17,2,0,0.00
2013-10-27,56,46,32,36,33,29,88,62,44,30.20,29.95,11,1,0,0.00
2013-10-28,62,42,28,41,33,26,95,75,39,30.35,30.19,4,0,0,0.00
2013-10-29,61,44,33,43,37,31,95,78,49,30.44,30.35,5,0,0,0.00
2013-10-30,56,47,36,53,45,34,96,93,89,30.38,30.21,3,0,0,0.02
2013-10-31,66,58,49,60,55,47,97,90,77,30.25,29.82,7,2,0,0.06
2013-11-1,71,62,49,64,57,47,94,83,57,29.81,29.59,14,3,0,0.26
2013-11-2,66,54,45,54,46,40,99,78,50,29.86,29.67,7,1,0,0.26
2013-11-3,52,44,33,42,31,20,87,61,34,30.50,29.86,15,3,0,0.00
2013-11-4,45,35,28,27,22,17,85,61,35,30.69,30.50,9,1,0,0.00
2013-11-5,58,43,31,43,36,27,92,76,55,30.68,30.52,5,0,0,0.00
2013-11-6,65,53,42,51,47,39,93,81,60,30.53,30.10,8,2,0,0.00
2013-11-7,58,52,42,56,48,28,93,84,58,30.09,29.86,9,2,0,0.13
2013-11-8,47,40,33,33,28,26,85,64,48,30.32,30.04,11,2,0,0.13
2013-11-9,51,38,25,34,28,23,93,71,46,30.37,30.04,9,2,0,0.00
2013-11-10,58,44,28,37,31,26,94,64,43,30.19,29.96,13,3,0,0.00
2013-11-11,54,44,30,38,32,26,90,65,43,30.29,30.03,9,2,0,0.00
2013-11-12,49,36,22,37,24,13,85,61,44,30.39,30.00,11,3,0,0.00
2013-11-13,39,30,22,21,17,12,85,59,40,30.48,30.38,10,2,0,0.00
2013-11-14,55,37,23,27,20,12,86,56,19,30.38,30.25,11,2,0,0.00
2013-11-15,60,38,25,37,27,21,94,70,24,30.31,30.21,3,0,0,0.00
2013-11-16,59,48,36,47,43,32,94,84,64,30.37,30.29,5,1,0,0.07
2013-11-17,64,55,49,57,52,47,95,90,74,30.30,29.77,9,1,0,0.00
2013-11-18,64,58,47,59,39,25,93,53,30,29.91,29.69,13,4,0,0.14
2013-11-19,47,40,28,29,25,22,80,56,43,30.40,29.91,10,3,0,0.00
2013-11-20,46,32,23,26,20,13,90,66,27,30.63,30.40,4,1,0,0.00
2013-11-21,51,37,21,41,30,17,90,76,59,30.65,30.44,4,0,0,0.00
2013-11-22,55,50,45,50,46,41,94,87,82,30.43,30.01,10,1,0,0.01
2013-11-23,52,40,28,47,27,11,84,60,45,30.17,30.03,14,5,0,0.02
2013-11-24,28,24,21,11,3,0,64,40,30,30.50,30.18,15,5,0,0.00
2013-11-25,33,26,17,18,13,10,76,59,42,30.59,30.39,8,2,0,0.00
2013-11-26,47,34,30,46,26,14,96,77,50,30.38,29.68,6,1,0,0.56
2013-11-27,53,38,29,52,34,18,97,87,59,29.93,29.48,12,4,0,0.29
2013-11-28,34,29,26,23,18,16,82,66,52,30.53,29.95,13,3,0,0.29
2013-11-29,38,27,18,25,20,15,93,75,53,30.78,30.52,6,1,0,0.00
2013-11-30,39,26,16,26,21,13,91,80,61,30.78,30.43,5,0,0,0.00
2013-12-1,47,31,20,34,26,17,95,80,53,30.43,30.08,5,0,0,0.00
2013-12-2,49,38,32,35,32,28,90,80,55,30.07,29.92,2,0,0,0.00
2013-12-3,54,39,28,37,33,26,91,80,51,30.06,29.93,3,0,0,0.00
2013-12-4,53,42,29,45,38,27,95,84,68,30.15,30.04,4,0,0,0.00
2013-12-5,55,52,48,54,50,45,97,95,88,30.13,29.96,5,0,0,0.00
2013-12-6,60,46,35,60,45,33,97,95,92,30.21,29.90,9,2,0,0.24
2013-12-7,37,33,28,33,29,23,95,84,69,30.57,30.14,12,2,0,0.13
2013-12-8,29,26,24,26,22,17,94,83,67,30.64,30.36,4,1,0,0.13
2013-12-9,35,32,28,33,31,26,96,95,94,30.36,30.06,4,1,0,0.00
2013-12-10,33,29,18,32,27,16,96,93,87,30.23,30.00,6,1,0,0.00
2013-12-11,18,11,7,17,8,4,93,89,88,30.43,30.23,0,0,0,0.00
2013-12-12,26,18,8,12,9,5,86,67,50,30.44,30.26,10,1,0,0.00
2013-12-13,35,24,8,21,14,5,90,70,49,30.39,30.23,9,1,0,0.01
2013-12-14,30,28,22,29,24,19,95,88,77,30.44,29.79,5,1,0,0.01
2013-12-15,38,32,25,35,29,21,95,88,70,29.94,29.64,6,1,0,0.58
2013-12-16,30,24,16,24,13,9,89,65,46,30.27,29.93,10,2,0,0.01
2013-12-17,28,24,18,25,20,16,91,85,72,30.25,30.01,3,0,0,0.01
2013-12-18,36,27,18,24,20,16,93,77,53,30.26,30.03,6,1,0,0.05
2013-12-19,47,29,14,31,23,11,94,79,49,30.26,30.11,8,1,0,0.35
2013-12-20,50,37,28,37,31,26,94,80,53,30.16,30.04,6,1,0,0.30
2013-12-21,63,46,32,56,42,31,96,86,70,30.06,29.94,11,1,0,0.07
2013-12-22,65,61,58,63,59,55,95,90,86,30.01,29.84,14,4,0,0.13
2013-12-23,58,51,36,57,48,29,96,89,73,30.22,29.94,10,2,0,0.69
2013-12-24,37,31,23,28,22,11,88,69,56,30.45,30.20,11,2,0,0.69
2013-12-25,29,24,18,16,11,7,70,59,47,30.59,30.45,6,2,0,0.00
2013-12-26,38,26,17,30,21,14,91,83,67,30.44,30.24,9,1,0,0.03
2013-12-27,46,27,16,29,20,14,94,77,35,30.44,30.34,10,1,0,0.03
2013-12-28,57,37,21,31,26,18,94,69,33,30.36,30.14,7,1,0,0.00
2013-12-29,43,39,35,42,36,29,95,89,73,30.14,29.52,6,1,0,1.01
2013-12-30,41,35,25,39,28,15,95,77,62,30.22,29.81,11,2,0,1.01
2013-12-31,35,28,22,26,17,13,79,65,50,30.36,30.11,12,2,0,0.00
2014-1-1,38,28,17,26,21,12,89,76,57,30.45,30.23,4,1,0,0.00
2014-1-2,31,27,18,26,23,16,92,85,75,30.22,29.70,6,2,0,0.00